createdAt,value
2022-11-26T00:01:42.312Z,97631.66
2022-11-26T00:04:09.506Z,97634.66
2022-11-26T00:06:42.418Z,97642.81
2022-11-26T00:09:14.860Z,97643.50
2022-11-26T00:11:41.427Z,97640.41
2022-11-26T00:14:14.850Z,97645.16
2022-11-26T00:16:41.571Z,97648.94
2022-11-26T00:19:07.938Z,97645.13
2022-11-26T00:21:36.038Z,97645.56
2022-11-26T00:24:03.248Z,97647.50
2022-11-26T00:26:29.995Z,97650.56
2022-11-26T00:28:57.808Z,97652.66
2022-11-26T00:31:24.611Z,97650.78
2022-11-26T00:33:51.038Z,97654.28
2022-11-26T00:36:25.604Z,97663.66
2022-11-26T00:39:01.020Z,97662.41
2022-11-26T00:41:30.779Z,97668.69
2022-11-26T00:43:58.731Z,97677.22
2022-11-26T00:46:25.099Z,97679.94
2022-11-26T00:48:52.010Z,97687.41
2022-11-26T00:51:20.367Z,97680.38
2022-11-26T00:53:47.674Z,97685.59
2022-11-26T00:56:18.550Z,97684.66
2022-11-26T00:58:45.440Z,97688.94
2022-11-26T01:01:13.114Z,97683.75
2022-11-26T01:03:42.959Z,97690.03
2022-11-26T01:06:14.207Z,97688.94
2022-11-26T01:08:40.557Z,97683.00
2022-11-26T01:11:07.186Z,97687.66
2022-11-26T01:13:33.604Z,97686.56
2022-11-26T01:16:02.636Z,97687.13
2022-11-26T01:18:30.754Z,97697.97
2022-11-26T01:20:57.074Z,97704.94
2022-11-26T01:23:23.433Z,97705.53
2022-11-26T01:25:49.833Z,97701.03
2022-11-26T01:28:17.585Z,97706.00
2022-11-26T01:30:45.420Z,97698.75
2022-11-26T01:33:11.838Z,97704.53
2022-11-26T01:35:38.248Z,97706.63
2022-11-26T01:38:04.650Z,97707.72
2022-11-26T01:40:49.944Z,97708.94
2022-11-26T01:43:31.305Z,97714.75
2022-11-26T01:45:58.748Z,97717.72
2022-11-26T01:48:27.328Z,97726.00
2022-11-26T01:50:58.551Z,97721.59
2022-11-26T01:53:24.974Z,97723.25
2022-11-26T01:55:56.050Z,97727.53
2022-11-26T01:58:32.574Z,97731.34
2022-11-26T02:01:02.004Z,97732.16
2022-11-26T02:03:29.870Z,97730.47
2022-11-26T02:05:58.927Z,97736.53
2022-11-26T02:08:26.581Z,97738.28
2022-11-26T02:10:52.951Z,97734.88
2022-11-26T02:13:19.723Z,97738.44
2022-11-26T02:16:03.463Z,97738.16
2022-11-26T02:18:33.936Z,97746.72
2022-11-26T02:21:05.868Z,97740.03
2022-11-26T02:23:50.899Z,97738.81
2022-11-26T02:26:33.293Z,97742.53
2022-11-26T02:29:00.675Z,97750.22
2022-11-26T02:31:33.931Z,97744.88
2022-11-26T02:34:10.879Z,97756.03
2022-11-26T02:36:40.620Z,97757.56
2022-11-26T02:39:13.407Z,97765.38
2022-11-26T02:41:49.334Z,97770.72
2022-11-26T02:44:17.369Z,97767.44
2022-11-26T02:46:48.024Z,97767.66
2022-11-26T02:49:17.695Z,97773.84
2022-11-26T02:51:44.494Z,97770.88
2022-11-26T02:54:11.628Z,97762.22
2022-11-26T02:56:38.642Z,97765.50
2022-11-26T02:59:05.694Z,97757.69
2022-11-26T03:01:47.148Z,97761.38
2022-11-26T03:04:18.858Z,97765.50
2022-11-26T03:06:46.208Z,97771.44
2022-11-26T03:09:12.852Z,97766.59
2022-11-26T03:11:39.172Z,97763.97
2022-11-26T03:14:05.643Z,97770.88
2022-11-26T03:16:32.007Z,97772.19
2022-11-26T03:18:58.376Z,97777.03
2022-11-26T03:21:24.702Z,97778.72
2022-11-26T03:23:51.093Z,97786.41
2022-11-26T03:26:17.421Z,97788.88
2022-11-26T03:28:43.882Z,97787.25
2022-11-26T03:31:10.234Z,97787.53
2022-11-26T03:33:36.610Z,97791.44
2022-11-26T03:36:03.309Z,97790.72
2022-11-26T03:38:29.644Z,97789.63
2022-11-26T03:40:58.521Z,97793.94
2022-11-26T03:43:25.000Z,97800.09
2022-11-26T03:45:51.459Z,97796.22
2022-11-26T03:48:17.862Z,97800.34
2022-11-26T03:50:44.251Z,97797.88
2022-11-26T03:53:10.651Z,97809.28
2022-11-26T03:55:37.043Z,97804.41
2022-11-26T03:58:03.360Z,97804.63
2022-11-26T04:00:29.737Z,97808.88
2022-11-26T04:02:57.122Z,97815.69
2022-11-26T04:05:23.492Z,97815.91
2022-11-26T04:07:49.895Z,97820.41
2022-11-26T04:10:16.271Z,97812.91
2022-11-26T04:12:42.591Z,97825.25
2022-11-26T04:15:09.240Z,97822.28
2022-11-26T04:17:35.670Z,97829.25
2022-11-26T04:20:02.008Z,97831.53
2022-11-26T04:22:28.323Z,97829.25
2022-11-26T04:24:54.682Z,97836.16
2022-11-26T04:27:20.991Z,97834.25
2022-11-26T04:29:48.390Z,97844.69
2022-11-26T04:32:14.815Z,97843.38
2022-11-26T04:34:41.214Z,97845.88
2022-11-26T04:37:07.634Z,97844.81
2022-11-26T04:39:34.111Z,97857.63
2022-11-26T04:42:00.422Z,97868.91
2022-11-26T04:44:26.873Z,97867.97
2022-11-26T04:46:53.189Z,97872.69
2022-11-26T04:49:19.576Z,97876.69
2022-11-26T04:51:45.902Z,97877.66
2022-11-26T04:54:13.313Z,97883.13
2022-11-26T04:56:40.309Z,97879.44
2022-11-26T04:59:06.822Z,97890.72
2022-11-26T05:01:33.467Z,97884.09
2022-11-26T05:03:59.957Z,97886.69
2022-11-26T05:06:26.285Z,97892.63
2022-11-26T05:08:52.664Z,97885.97
2022-11-26T05:11:18.983Z,97887.66
2022-11-26T05:13:45.304Z,97888.59
2022-11-26T05:16:11.730Z,97893.13
2022-11-26T05:18:38.116Z,97883.50
2022-11-26T05:21:05.235Z,97887.06
2022-11-26T05:23:31.673Z,97876.25
2022-11-26T05:25:58.015Z,97882.31
2022-11-26T05:28:24.376Z,97880.41
2022-11-26T05:30:56.954Z,97891.03
2022-11-26T05:33:23.282Z,97885.91
2022-11-26T05:35:49.759Z,97895.50
2022-11-26T05:38:16.098Z,97898.69
2022-11-26T05:40:42.458Z,97901.97
2022-11-26T05:43:08.872Z,97902.94
2022-11-26T05:45:35.297Z,97914.00
2022-11-26T05:48:01.663Z,97915.44
2022-11-26T05:50:27.972Z,97929.19
2022-11-26T05:52:54.384Z,97918.72
2022-11-26T05:55:20.699Z,97920.28
2022-11-26T05:57:47.031Z,97930.03
2022-11-26T06:00:13.712Z,97927.66
2022-11-26T06:02:40.187Z,97932.28
2022-11-26T06:05:07.079Z,97935.41
2022-11-26T06:07:33.607Z,97931.09
2022-11-26T06:09:59.992Z,97931.56
2022-11-26T06:12:26.570Z,97929.19
2022-11-26T06:14:59.019Z,97937.63
2022-11-26T06:17:25.603Z,97927.28
2022-11-26T06:19:52.426Z,97942.47
2022-11-26T06:22:18.736Z,97942.34
2022-11-26T06:24:45.065Z,97939.41
2022-11-26T06:27:11.395Z,97951.50
2022-11-26T06:29:37.945Z,97943.19
2022-11-26T06:32:04.465Z,97954.38
2022-11-26T06:34:30.852Z,97952.34
2022-11-26T06:36:57.206Z,97961.72
2022-11-26T06:39:23.609Z,97958.41
2022-11-26T06:41:49.938Z,97958.63
2022-11-26T06:44:16.395Z,97966.34
2022-11-26T06:46:42.734Z,97974.53
2022-11-26T06:49:09.766Z,97973.97
2022-11-26T06:51:36.140Z,97971.81
2022-11-26T06:54:02.475Z,97983.34
2022-11-26T06:56:28.814Z,97988.22
2022-11-26T06:58:55.337Z,97983.34
2022-11-26T07:01:23.896Z,97986.63
2022-11-26T07:03:50.769Z,97995.44
2022-11-26T07:06:24.537Z,97999.97
2022-11-26T07:08:51.610Z,98001.50
2022-11-26T07:11:18.238Z,98012.53
2022-11-26T07:13:44.630Z,98007.66
2022-11-26T07:16:11.005Z,98009.09
2022-11-26T07:18:39.583Z,98010.63
2022-11-26T07:21:10.661Z,98003.97
2022-11-26T07:23:37.342Z,98011.81
2022-11-26T07:26:05.110Z,98015.38
2022-11-26T07:28:31.756Z,98018.69
2022-11-26T07:31:02.516Z,98017.00
2022-11-26T07:33:29.013Z,98016.06
2022-11-26T07:36:02.317Z,98018.53
2022-11-26T07:38:29.251Z,98026.88
2022-11-26T07:41:02.656Z,98025.06
2022-11-26T07:43:29.035Z,98023.88
2022-11-26T07:45:56.481Z,98030.19
2022-11-26T07:48:22.822Z,98031.38
2022-11-26T07:50:49.129Z,98045.97
2022-11-26T07:53:16.490Z,98052.41
2022-11-26T07:55:42.828Z,98050.75
2022-11-26T07:58:09.215Z,98061.56
2022-11-26T08:00:35.549Z,98066.91
2022-11-26T08:03:01.922Z,98065.81
2022-11-26T08:05:28.343Z,98069.03
2022-11-26T08:07:54.776Z,98073.44
2022-11-26T08:10:21.152Z,98070.13
2022-11-26T08:12:47.915Z,98066.44
2022-11-26T08:15:14.246Z,98071.44
2022-11-26T08:17:40.688Z,98072.13
2022-11-26T08:20:07.364Z,98071.41
2022-11-26T08:22:33.686Z,98070.22
2022-11-26T08:25:00.024Z,98075.00
2022-11-26T08:27:26.396Z,98068.69
2022-11-26T08:29:52.917Z,98068.06
2022-11-26T08:32:19.320Z,98071.16
2022-11-26T08:34:45.704Z,98071.16
2022-11-26T08:37:12.018Z,98068.41
2022-11-26T08:39:38.461Z,98080.53
2022-11-26T08:42:04.918Z,98081.38
2022-11-26T08:44:31.301Z,98079.00
2022-11-26T08:46:57.625Z,98090.03
2022-11-26T08:49:24.010Z,98098.09
2022-11-26T08:51:50.341Z,98090.16
2022-11-26T08:54:16.701Z,98099.78
2022-11-26T08:56:44.025Z,98106.56
2022-11-26T08:59:10.385Z,98107.50
2022-11-26T09:01:36.778Z,98115.94
2022-11-26T09:04:03.764Z,98121.88
2022-11-26T09:06:31.200Z,98118.69
2022-11-26T09:09:12.922Z,98116.16
2022-11-26T09:11:39.461Z,98125.09
2022-11-26T09:14:05.810Z,98119.38
2022-11-26T09:16:32.410Z,98118.16
2022-11-26T09:19:03.161Z,98128.41
2022-11-26T09:21:29.702Z,98120.91
2022-11-26T09:23:56.058Z,98116.53
2022-11-26T09:26:22.508Z,98121.00
2022-11-26T09:28:49.264Z,98113.88
2022-11-26T09:31:15.732Z,98121.56
2022-11-26T09:33:42.571Z,98108.59
2022-11-26T09:36:10.174Z,98118.75
2022-11-26T09:38:36.980Z,98115.53
2022-11-26T09:41:22.027Z,98124.13
2022-11-26T09:44:04.544Z,98132.09
2022-11-26T09:47:11.448Z,98133.09
2022-11-26T09:49:47.822Z,98135.66
2022-11-26T09:52:17.383Z,98131.53
2022-11-26T09:54:44.670Z,98126.53
2022-11-26T09:57:26.101Z,98131.22
2022-11-26T09:59:55.287Z,98131.28
2022-11-26T10:02:25.079Z,98118.97
2022-11-26T10:04:51.728Z,98117.78
2022-11-26T10:07:18.235Z,98120.25
2022-11-26T10:10:17.080Z,98112.91
2022-11-26T10:13:11.208Z,98109.03
2022-11-26T10:15:42.975Z,98110.00
2022-11-26T10:18:28.160Z,98112.66
2022-11-26T10:21:02.020Z,98111.81
2022-11-26T10:23:33.858Z,98112.97
2022-11-26T10:26:07.108Z,98107.81
2022-11-26T10:28:36.393Z,98112.38
2022-11-26T10:31:04.493Z,98105.94
2022-11-26T10:33:48.737Z,98112.25
2022-11-26T10:36:21.511Z,98109.28
2022-11-26T10:38:48.008Z,98105.69
2022-11-26T10:41:14.717Z,98116.59
2022-11-26T10:43:44.197Z,98115.06
2022-11-26T10:46:29.381Z,98113.91
2022-11-26T10:49:14.514Z,98118.84
2022-11-26T10:51:40.847Z,98122.03
2022-11-26T10:54:20.817Z,98123.56
2022-11-26T10:56:47.775Z,98128.66
2022-11-26T10:59:23.054Z,98132.53
2022-11-26T11:01:52.899Z,98127.03
2022-11-26T11:04:39.398Z,98130.16
2022-11-26T11:07:11.703Z,98133.59
2022-11-26T11:09:38.539Z,98130.13
2022-11-26T11:12:07.760Z,98132.13
2022-11-26T11:14:37.160Z,98137.13
2022-11-26T11:17:06.878Z,98136.72
2022-11-26T11:19:33.591Z,98134.84
2022-11-26T11:22:00.266Z,98124.78
2022-11-26T11:24:29.937Z,98129.25
2022-11-26T11:26:57.501Z,98124.66
2022-11-26T11:29:23.866Z,98124.66
2022-11-26T11:31:50.365Z,98123.44
2022-11-26T11:34:21.261Z,98126.03
2022-11-26T11:37:14.753Z,98116.94
2022-11-26T11:39:42.480Z,98128.53
2022-11-26T11:42:20.825Z,98131.38
2022-11-26T11:44:49.184Z,98128.81
2022-11-26T11:47:15.483Z,98129.28
2022-11-26T11:50:00.860Z,98129.38
2022-11-26T11:52:39.199Z,98127.03
2022-11-26T11:55:24.153Z,98134.03
2022-11-26T11:57:50.430Z,98126.88
2022-11-26T12:00:21.382Z,98135.09
2022-11-26T12:02:56.626Z,98132.78
2022-11-26T12:05:29.129Z,98141.84
2022-11-26T12:08:05.981Z,98141.66
2022-11-26T12:11:01.496Z,98141.63
2022-11-26T12:13:30.184Z,98136.22
2022-11-26T12:16:00.967Z,98138.00
2022-11-26T12:18:32.320Z,98136.72
2022-11-26T12:21:07.190Z,98138.81
2022-11-26T12:23:33.561Z,98131.72
2022-11-26T12:26:02.955Z,98133.34
2022-11-26T12:28:31.921Z,98139.41
2022-11-26T12:31:01.819Z,98140.94
2022-11-26T12:33:41.303Z,98137.06
2022-11-26T12:36:15.187Z,98131.81
2022-11-26T12:38:47.949Z,98136.53
2022-11-26T12:41:37.647Z,98133.56
2022-11-26T12:44:16.430Z,98134.72
2022-11-26T12:47:03.018Z,98132.84
2022-11-26T12:49:42.784Z,98143.94
2022-11-26T12:52:09.100Z,98143.84
2022-11-26T12:54:43.396Z,98145.16
2022-11-26T12:57:26.773Z,98144.91
2022-11-26T13:00:06.756Z,98146.50
2022-11-26T13:02:36.991Z,98150.78
2022-11-26T13:05:03.766Z,98142.97
2022-11-26T13:07:31.195Z,98135.00
2022-11-26T13:09:57.590Z,98140.13
2022-11-26T13:12:37.724Z,98152.31
2022-11-26T13:15:04.072Z,98151.22
2022-11-26T13:17:47.414Z,98143.66
2022-11-26T13:20:28.723Z,98152.31
2022-11-26T13:22:55.049Z,98147.13
2022-11-26T13:25:31.391Z,98149.13
2022-11-26T13:28:06.156Z,98159.94
2022-11-26T13:30:39.155Z,98154.00
2022-11-26T13:33:17.772Z,98149.38
2022-11-26T13:36:02.705Z,98149.69
2022-11-26T13:38:39.525Z,98147.56
2022-11-26T13:41:24.545Z,98151.22
2022-11-26T13:44:16.937Z,98152.66
2022-11-26T13:46:48.785Z,98147.06
2022-11-26T13:49:19.488Z,98148.94
2022-11-26T13:52:01.561Z,98149.47
2022-11-26T13:54:27.960Z,98152.75
2022-11-26T13:57:00.487Z,98144.47
2022-11-26T13:59:28.885Z,98148.22
2022-11-26T14:01:55.690Z,98143.00
2022-11-26T14:04:22.056Z,98146.97
2022-11-26T14:07:20.999Z,98151.06
2022-11-26T14:09:48.976Z,98159.16
2022-11-26T14:12:18.282Z,98165.13
2022-11-26T14:14:48.989Z,98158.03
2022-11-26T14:17:18.381Z,98159.28
2022-11-26T14:19:44.711Z,98158.59
2022-11-26T14:22:11.032Z,98157.03
2022-11-26T14:24:51.589Z,98160.25
2022-11-26T14:27:22.219Z,98160.47
2022-11-26T14:30:08.884Z,98160.25
2022-11-26T14:32:59.209Z,98151.44
2022-11-26T14:35:30.590Z,98153.09
2022-11-26T14:38:01.104Z,98158.56
2022-11-26T14:40:37.776Z,98164.41
2022-11-26T14:43:16.177Z,98160.63
2022-11-26T14:45:43.874Z,98163.09
2022-11-26T14:48:36.624Z,98164.06
2022-11-26T14:51:07.102Z,98168.94
2022-11-26T14:53:35.049Z,98168.94
2022-11-26T14:56:02.747Z,98170.47
2022-11-26T14:58:41.354Z,98177.84
2022-11-26T15:01:07.731Z,98177.59
2022-11-26T15:03:34.478Z,98173.91
2022-11-26T15:06:02.193Z,98177.22
2022-11-26T15:08:28.604Z,98177.84
2022-11-26T15:11:00.240Z,98173.56
2022-11-26T15:13:46.795Z,98178.31
2022-11-26T15:16:25.284Z,98179.75
2022-11-26T15:18:55.311Z,98188.75
2022-11-26T15:21:22.901Z,98184.56
2022-11-26T15:23:50.225Z,98193.72
2022-11-26T15:26:17.880Z,98193.47
2022-11-26T15:28:44.350Z,98196.81
2022-11-26T15:31:11.795Z,98202.50
2022-11-26T15:33:38.913Z,98203.91
2022-11-26T15:36:06.582Z,98201.06
2022-11-26T15:38:34.172Z,98205.84
2022-11-26T15:41:07.496Z,98198.84
2022-11-26T15:43:33.823Z,98197.03
2022-11-26T15:46:03.463Z,98199.22
2022-11-26T15:48:51.696Z,98200.94
2022-11-26T15:51:24.892Z,98198.22
2022-11-26T15:53:51.685Z,98205.59
2022-11-26T15:56:19.665Z,98202.03
2022-11-26T15:58:48.419Z,98210.84
2022-11-26T16:01:19.840Z,98205.47
2022-11-26T16:03:48.599Z,98210.69
2022-11-26T16:06:42.645Z,98215.91
2022-11-26T16:09:08.955Z,98215.38
2022-11-26T16:11:37.037Z,98209.72
2022-11-26T16:14:21.590Z,98212.50
2022-11-26T16:16:48.058Z,98207.75
2022-11-26T16:19:14.808Z,98211.75
2022-11-26T16:21:47.878Z,98208.94
2022-11-26T16:24:30.611Z,98212.59
2022-11-26T16:27:03.278Z,98209.88
2022-11-26T16:29:29.961Z,98200.38
2022-11-26T16:31:56.828Z,98204.91
2022-11-26T16:34:25.589Z,98205.72
2022-11-26T16:36:52.495Z,98205.97
2022-11-26T16:39:18.858Z,98206.19
2022-11-26T16:41:45.236Z,98200.44
2022-11-26T16:44:11.702Z,98201.66
2022-11-26T16:46:41.084Z,98193.09
2022-11-26T16:49:07.588Z,98186.22
2022-11-26T16:51:33.912Z,98187.06
2022-11-26T16:54:00.231Z,98193.94
2022-11-26T16:56:28.288Z,98187.53
2022-11-26T16:58:57.590Z,98194.78
2022-11-26T17:01:24.215Z,98200.81
2022-11-26T17:03:50.826Z,98192.75
2022-11-26T17:06:24.216Z,98208.47
2022-11-26T17:08:50.955Z,98206.63
2022-11-26T17:11:17.578Z,98214.41
2022-11-26T17:13:43.952Z,98210.78
2022-11-26T17:16:14.864Z,98209.72
2022-11-26T17:18:41.265Z,98218.59
2022-11-26T17:21:07.646Z,98221.44
2022-11-26T17:23:33.977Z,98215.75
2022-11-26T17:26:01.020Z,98215.03
2022-11-26T17:28:27.505Z,98217.53
2022-11-26T17:30:56.041Z,98217.44
2022-11-26T17:33:23.460Z,98218.22
2022-11-26T17:35:50.216Z,98225.56
2022-11-26T17:38:20.570Z,98221.28
2022-11-26T17:40:47.455Z,98221.16
2022-11-26T17:43:14.128Z,98220.00
2022-11-26T17:45:41.020Z,98212.84
2022-11-26T17:48:11.068Z,98212.28
2022-11-26T17:50:37.394Z,98217.50
2022-11-26T17:53:03.824Z,98218.56
2022-11-26T17:55:31.076Z,98222.13
2022-11-26T17:57:58.235Z,98230.53
2022-11-26T18:00:28.069Z,98220.88
2022-11-26T18:02:54.749Z,98226.34
2022-11-26T18:05:21.251Z,98214.25
2022-11-26T18:07:50.213Z,98220.88
2022-11-26T18:10:18.502Z,98233.84
2022-11-26T18:12:44.865Z,98238.34
2022-11-26T18:15:19.176Z,98239.78
2022-11-26T18:17:48.175Z,98247.16
2022-11-26T18:20:15.256Z,98253.91
2022-11-26T18:22:42.143Z,98246.78
2022-11-26T18:25:08.482Z,98248.00
2022-11-26T18:27:35.636Z,98252.00
2022-11-26T18:30:02.823Z,98252.47
2022-11-26T18:32:29.193Z,98250.16
2022-11-26T18:34:55.550Z,98247.81
2022-11-26T18:37:21.893Z,98250.91
2022-11-26T18:39:48.263Z,98245.41
2022-11-26T18:42:36.060Z,98239.91
2022-11-26T18:45:02.085Z,98241.75
2022-11-26T18:47:28.410Z,98245.59
2022-11-26T18:49:54.793Z,98240.78
2022-11-26T18:52:21.176Z,98246.25
2022-11-26T18:54:47.506Z,98239.72
2022-11-26T18:57:13.955Z,98240.09
2022-11-26T18:59:40.521Z,98239.22
2022-11-26T19:02:08.513Z,98234.97
2022-11-26T19:04:35.282Z,98234.13
2022-11-26T19:07:02.364Z,98229.34
2022-11-26T19:09:28.772Z,98228.31
2022-11-26T19:11:55.148Z,98227.53
2022-11-26T19:14:21.525Z,98235.84
2022-11-26T19:16:49.028Z,98235.81
2022-11-26T19:19:20.422Z,98232.00
2022-11-26T19:21:46.780Z,98221.97
2022-11-26T19:24:13.313Z,98219.59
2022-11-26T19:26:41.198Z,98221.34
2022-11-26T19:29:08.121Z,98225.88
2022-11-26T19:31:35.819Z,98215.19
2022-11-26T19:34:06.065Z,98216.66
2022-11-26T19:36:33.283Z,98217.97
2022-11-26T19:39:03.692Z,98212.31
2022-11-26T19:41:30.025Z,98213.91
2022-11-26T19:43:56.443Z,98213.19
2022-11-26T19:46:24.000Z,98210.59
2022-11-26T19:48:50.985Z,98205.97
2022-11-26T19:51:18.527Z,98202.81
2022-11-26T19:53:53.218Z,98201.34
2022-11-26T19:56:21.201Z,98199.56
2022-11-26T19:58:47.758Z,98201.34
2022-11-26T20:01:14.980Z,98201.22
2022-11-26T20:03:41.831Z,98198.59
2022-11-26T20:06:19.182Z,98196.31
2022-11-26T20:08:46.579Z,98193.31
2022-11-26T20:11:15.692Z,98198.88
2022-11-26T20:13:43.179Z,98206.41
2022-11-26T20:16:21.037Z,98198.25
2022-11-26T20:18:47.979Z,98199.88
2022-11-26T20:21:15.873Z,98193.72
2022-11-26T20:23:42.405Z,98195.00
2022-11-26T20:26:19.115Z,98199.16
2022-11-26T20:28:45.920Z,98203.63
2022-11-26T20:31:13.051Z,98202.31
2022-11-26T20:33:39.429Z,98198.31
2022-11-26T20:36:07.312Z,98200.91
2022-11-26T20:38:33.798Z,98212.19
2022-11-26T20:41:00.270Z,98207.69
2022-11-26T20:43:26.686Z,98211.69
2022-11-26T20:46:06.335Z,98211.53
2022-11-26T20:48:36.202Z,98220.72
2022-11-26T20:51:04.094Z,98200.66
2022-11-26T20:53:30.925Z,98205.03
2022-11-26T20:55:57.320Z,98199.81
2022-11-26T20:58:24.576Z,98203.88
2022-11-26T21:00:51.508Z,98196.75
2022-11-26T21:03:17.818Z,98188.84
2022-11-26T21:05:46.460Z,98193.84
2022-11-26T21:08:13.434Z,98194.59
2022-11-26T21:10:40.361Z,98187.81
2022-11-26T21:13:08.700Z,98190.53
2022-11-26T21:15:36.584Z,98181.97
2022-11-26T21:18:03.141Z,98186.81
2022-11-26T21:20:34.838Z,98182.75
2022-11-26T21:23:02.590Z,98181.81
2022-11-26T21:25:29.088Z,98188.38
2022-11-26T21:27:55.965Z,98188.47
2022-11-26T21:30:22.420Z,98191.72
2022-11-26T21:32:48.867Z,98193.38
2022-11-26T21:35:15.232Z,98192.84
2022-11-26T21:37:41.541Z,98188.09
2022-11-26T21:40:08.414Z,98185.69
2022-11-26T21:42:34.822Z,98194.44
2022-11-26T21:45:01.207Z,98197.28
2022-11-26T21:47:27.529Z,98187.88
2022-11-26T21:49:53.952Z,98199.34
2022-11-26T21:52:20.455Z,98201.44
2022-11-26T21:54:46.812Z,98204.66
2022-11-26T21:57:13.133Z,98200.59
2022-11-26T21:59:39.637Z,98205.81
2022-11-26T22:02:06.436Z,98199.44
2022-11-26T22:04:32.982Z,98195.47
2022-11-26T22:07:00.194Z,98204.88
2022-11-26T22:09:28.804Z,98194.97
2022-11-26T22:12:01.033Z,98197.25
2022-11-26T22:14:27.385Z,98197.88
2022-11-26T22:16:53.999Z,98203.94
2022-11-26T22:19:21.371Z,98195.16
2022-11-26T22:21:47.977Z,98203.44
2022-11-26T22:24:15.740Z,98206.78
2022-11-26T22:26:42.804Z,98216.78
2022-11-26T22:29:11.027Z,98216.53
2022-11-26T22:31:38.150Z,98210.28
2022-11-26T22:34:04.464Z,98215.97
2022-11-26T22:36:31.010Z,98218.38
2022-11-26T22:38:58.607Z,98213.88
2022-11-26T22:41:25.546Z,98213.78
2022-11-26T22:43:52.023Z,98214.16
2022-11-26T22:46:19.610Z,98210.72
2022-11-26T22:49:05.035Z,98207.47
2022-11-26T22:51:32.759Z,98215.13
2022-11-26T22:54:02.893Z,98214.09
2022-11-26T22:56:30.076Z,98210.78
2022-11-26T22:58:56.519Z,98206.94
2022-11-26T23:01:30.418Z,98205.41
2022-11-26T23:03:57.450Z,98201.63
2022-11-26T23:06:24.807Z,98198.25
2022-11-26T23:08:54.381Z,98202.53
2022-11-26T23:11:22.685Z,98193.44
2022-11-26T23:13:49.875Z,98189.13
2022-11-26T23:16:17.715Z,98185.69
2022-11-26T23:18:44.139Z,98194.75
2022-11-26T23:21:12.281Z,98187.53
2022-11-26T23:23:39.133Z,98192.19
2022-11-26T23:26:06.453Z,98184.91
2022-11-26T23:28:33.716Z,98188.91
2022-11-26T23:31:01.359Z,98190.66
2022-11-26T23:33:28.620Z,98192.72
2022-11-26T23:35:56.918Z,98189.56
2022-11-26T23:38:23.751Z,98192.47
2022-11-26T23:41:01.480Z,98192.84
2022-11-26T23:43:28.925Z,98192.84
2022-11-26T23:46:21.692Z,98199.81
2022-11-26T23:48:48.553Z,98199.81
2022-11-26T23:51:16.266Z,98205.34
2022-11-26T23:53:43.204Z,98209.63
2022-11-26T23:56:21.753Z,98211.03
2022-11-26T23:58:49.429Z,98202.22
